Time;durP1;ratioP1;P1;durP2;ratioP2;P2;SDS_P1;SDS_P2;PMS_P1;PMS_P2;Temp;Humidity;BMP_temperature;BMP_pressure;BME280_temperature;BME280_humidity;BME280_pressure;Samples;Min_cycle;Max_cycle;Signal;HPM_P1;HPM_P2
2021/12/10 00:01:01;;;;;;;76.07;41.30;;;;;;;5.62;100.00;98641.97;5030688;28;20669;-61
2021/12/10 00:03:32;;;;;;;76.07;41.47;;;;;;;5.69;100.00;98628.06;5030748;28;20204;-62
2021/12/10 00:06:01;;;;;;;78.33;42.43;;;;;;;5.70;100.00;98640.03;5030879;28;20680;-62
2021/12/10 00:08:32;;;;;;;72.70;42.00;;;;;;;5.63;100.00;98622.22;5030545;28;20221;-61
2021/12/10 00:11:01;;;;;;;71.50;40.97;;;;;;;5.60;100.00;98625.69;5030757;28;20553;-62
2021/12/10 00:13:30;;;;;;;74.50;39.00;;;;;;;5.69;100.00;98638.34;5030348;28;20336;-61
2021/12/10 00:15:57;;;;;;;76.20;41.50;;;;;;;5.59;100.00;98641.19;5030492;28;20197;-61
2021/12/10 00:18:32;;;;;;;76.20;41.60;;;;;;;5.54;100.00;98630.13;5030579;28;20193;-62
2021/12/10 00:21:00;;;;;;;76.63;41.37;;;;;;;5.45;100.00;98636.34;5030772;28;20275;-62
2021/12/10 00:23:29;;;;;;;75.13;40.50;;;;;;;5.47;100.00;98627.69;5030461;28;20284;-61
2021/12/10 00:25:57;;;;;;;75.57;41.00;;;;;;;5.38;100.00;98627.91;5030078;28;20230;-61
2021/12/10 00:28:27;;;;;;;72.60;42.00;;;;;;;5.56;100.00;98641.25;5030029;28;20260;-62
2021/12/10 00:31:05;;;;;;;73.77;41.03;;;;;;;5.56;100.00;98626.63;5030289;28;20260;-61
2021/12/10 00:33:39;;;;;;;70.57;40.63;;;;;;;5.54;100.00;98600.09;5030149;28;20197;-61
2021/12/10 00:36:07;;;;;;;74.47;39.43;;;;;;;5.52;100.00;98606.19;5030258;28;20579;-61
2021/12/10 00:38:35;;;;;;;74.30;41.67;;;;;;;5.54;100.00;98619.81;5030344;28;20205;-62
2021/12/10 00:41:06;;;;;;;80.17;41.93;;;;;;;5.43;100.00;98599.47;5030118;28;20237;-61
2021/12/10 00:43:33;;;;;;;71.27;40.90;;;;;;;5.31;100.00;98561.16;5030486;28;20585;-61
2021/12/10 00:46:01;;;;;;;80.83;41.53;;;;;;;5.46;100.00;98591.72;5030538;28;20196;-60
2021/12/10 00:48:28;;;;;;;70.10;39.57;;;;;;;5.50;100.00;98570.19;5029837;28;20227;-61
2021/12/10 00:50:58;;;;;;;71.07;41.67;;;;;;;5.64;100.00;98588.72;5030024;28;20209;-61
2021/12/10 00:53:26;;;;;;;71.20;40.53;;;;;;;5.60;100.00;98606.84;5029877;28;20288;-60
2021/12/10 00:55:53;;;;;;;74.43;39.70;;;;;;;5.51;100.00;98599.34;5030465;28;20197;-61
2021/12/10 00:58:21;;;;;;;70.23;40.37;;;;;;;5.41;100.00;98584.09;5029892;28;20190;-61
2021/12/10 01:00:51;;;;;;;76.27;41.03;;;;;;;5.59;100.00;98575.09;5030151;28;20198;-61
2021/12/10 01:03:31;;;;;;;74.67;41.53;;;;;;;5.46;100.00;98558.25;5030056;28;20524;-61
2021/12/10 01:06:01;;;;;;;74.73;40.67;;;;;;;5.44;100.00;98596.88;5029930;28;20203;-61
2021/12/10 01:08:29;;;;;;;74.20;40.87;;;;;;;5.58;100.00;98586.28;5029690;28;20229;-61
2021/12/10 01:11:01;;;;;;;75.57;41.20;;;;;;;5.64;100.00;98583.56;5030055;28;20197;-61
2021/12/10 01:13:32;;;;;;;77.93;41.27;;;;;;;5.62;100.00;98576.75;5030508;28;20320;-60
2021/12/10 01:16:18;;;;;;;75.93;40.60;;;;;;;5.50;100.00;98559.03;5033893;28;20218;-61
2021/12/10 01:24:36;;;;;;;70.53;39.53;;;;;;;5.56;100.00;98557.16;5033581;28;20205;-61
2021/12/10 01:27:14;;;;;;;77.20;40.07;;;;;;;5.51;100.00;98528.13;5033392;28;20732;-61
2021/12/10 01:29:43;;;;;;;76.27;40.43;;;;;;;5.60;100.00;98543.34;5033286;28;20200;-60
2021/12/10 01:32:13;;;;;;;73.50;40.90;;;;;;;5.50;100.00;98547.00;5033273;28;20203;-62
2021/12/10 01:34:43;;;;;;;75.97;40.10;;;;;;;5.63;100.00;98552.72;5033412;28;20204;-61
2021/12/10 01:37:11;;;;;;;76.07;40.73;;;;;;;5.62;100.00;98527.84;5033165;28;20717;-62
2021/12/10 01:39:41;;;;;;;78.70;41.27;;;;;;;5.69;100.00;98516.50;5033589;28;20246;-61
2021/12/10 01:42:17;;;;;;;76.10;40.07;;;;;;;5.67;100.00;98515.69;5033716;28;20375;-61
2021/12/10 01:44:52;;;;;;;77.77;40.73;;;;;;;5.57;100.00;98520.22;5033283;28;20221;-61
2021/12/10 01:47:22;;;;;;;80.80;41.57;;;;;;;5.73;100.00;98523.28;5033090;28;20599;-62
2021/12/10 01:49:52;;;;;;;78.33;39.57;;;;;;;5.59;100.00;98484.16;5033033;28;20288;-62
2021/12/10 01:52:19;;;;;;;90.43;40.57;;;;;;;5.69;100.00;98491.63;5033213;28;20201;-62
2021/12/10 01:54:49;;;;;;;77.73;40.97;;;;;;;5.58;100.00;98500.50;5033105;28;20203;-62
2021/12/10 01:57:18;;;;;;;85.43;41.83;;;;;;;5.74;100.00;98469.19;5033008;28;20203;-61
2021/12/10 01:59:46;;;;;;;99.27;43.17;;;;;;;5.71;100.00;98469.25;5032924;28;20240;-61
2021/12/10 02:02:18;;;;;;;93.33;42.47;;;;;;;5.77;100.00;98460.50;5032689;28;20292;-62
2021/12/10 02:04:47;;;;;;;90.43;41.50;;;;;;;5.79;100.00;98475.03;5032864;28;20288;-62
2021/12/10 02:07:20;;;;;;;94.60;41.63;;;;;;;5.78;100.00;98447.59;5032627;28;20687;-63
2021/12/10 02:09:49;;;;;;;95.43;42.70;;;;;;;5.81;100.00;98439.81;5032789;28;20284;-62
2021/12/10 02:12:18;;;;;;;92.87;42.87;;;;;;;5.82;100.00;98454.38;5032911;28;20649;-62
2021/12/10 02:14:45;;;;;;;98.60;44.90;;;;;;;5.73;100.00;98431.44;5032700;28;20648;-61
2021/12/10 02:17:13;;;;;;;95.10;42.17;;;;;;;5.86;100.00;98431.97;5032542;28;20477;-61
2021/12/10 02:19:40;;;;;;;107.33;45.27;;;;;;;5.82;100.00;98456.09;5032840;28;20736;-61
2021/12/10 02:22:09;;;;;;;97.07;43.50;;;;;;;5.72;100.00;98395.44;5032787;28;20715;-61
2021/12/10 02:24:36;;;;;;;101.03;43.33;;;;;;;5.79;100.00;98431.28;5032438;28;20641;-61
2021/12/10 02:27:07;;;;;;;98.53;43.67;;;;;;;5.77;100.00;98422.75;5032333;28;20202;-61
2021/12/10 02:29:36;;;;;;;89.33;41.57;;;;;;;5.79;100.00;98412.41;5032160;28;20197;-61
2021/12/10 02:32:05;;;;;;;95.90;42.60;;;;;;;5.79;100.00;98454.44;5032323;28;20205;-61
2021/12/10 02:34:32;;;;;;;97.90;44.43;;;;;;;5.80;100.00;98443.25;5032228;28;20243;-61
2021/12/10 02:36:59;;;;;;;102.47;43.90;;;;;;;5.81;100.00;98414.06;5032152;28;20384;-62
2021/12/10 02:39:28;;;;;;;98.40;43.73;;;;;;;5.76;100.00;98428.78;5032270;28;20347;-62
2021/12/10 02:41:56;;;;;;;101.43;43.67;;;;;;;5.68;100.00;98399.81;5032252;28;20288;-61
2021/12/10 02:44:27;;;;;;;98.27;43.60;;;;;;;5.85;100.00;98425.13;5032062;28;20205;-61
2021/12/10 02:46:55;;;;;;;106.20;44.23;;;;;;;5.72;100.00;98413.47;5032014;28;20204;-62
2021/12/10 02:49:22;;;;;;;105.13;43.97;;;;;;;5.81;100.00;98436.38;5031997;28;20201;-61
2021/12/10 02:51:50;;;;;;;105.03;45.47;;;;;;;5.82;100.00;98420.91;5032118;28;20197;-62
2021/12/10 02:54:22;;;;;;;107.50;46.40;;;;;;;5.74;100.00;98438.28;5032025;28;20197;-59
2021/12/10 02:56:52;;;;;;;113.83;46.27;;;;;;;5.81;100.00;98438.97;5031809;28;20732;-61
2021/12/10 02:59:19;;;;;;;104.27;45.37;;;;;;;5.68;100.00;98409.28;5031696;28;20194;-61
2021/12/10 03:01:50;;;;;;;104.07;46.20;;;;;;;5.90;100.00;98438.75;5031695;28;20290;-61
2021/12/10 03:04:17;;;;;;;108.40;45.33;;;;;;;5.93;100.00;98448.97;5031803;28;20512;-61
2021/12/10 03:06:48;;;;;;;106.13;45.43;;;;;;;5.93;100.00;98437.81;5031980;28;20648;-61
2021/12/10 03:09:17;;;;;;;109.17;45.33;;;;;;;6.02;100.00;98461.59;5031439;28;20231;-61
2021/12/10 03:11:48;;;;;;;105.93;44.33;;;;;;;6.04;100.00;98456.41;5031606;28;20197;-61
2021/12/10 03:14:18;;;;;;;109.07;45.47;;;;;;;6.02;100.00;98477.03;5031539;28;20747;-61
2021/12/10 03:16:46;;;;;;;93.73;43.40;;;;;;;6.04;100.00;98457.25;5031753;28;20287;-61
2021/12/10 03:19:13;;;;;;;97.67;43.67;;;;;;;6.09;100.00;98457.97;5031625;28;20276;-61
2021/12/10 03:21:44;;;;;;;104.03;45.30;;;;;;;6.09;100.00;98426.22;5031264;28;20574;-62
2021/12/10 03:24:12;;;;;;;107.40;44.33;;;;;;;6.05;100.00;98432.34;5031384;28;20207;-61
2021/12/10 03:26:39;;;;;;;114.20;46.97;;;;;;;5.97;100.00;98429.97;5031290;28;20198;-61
2021/12/10 03:29:07;;;;;;;109.87;46.13;;;;;;;5.91;100.00;98418.97;5030942;28;20710;-61
2021/12/10 03:31:35;;;;;;;101.60;44.73;;;;;;;6.01;100.00;98449.59;5031189;28;20283;-61
2021/12/10 03:34:05;;;;;;;105.47;45.07;;;;;;;6.10;100.00;98415.00;5031026;28;20213;-62
2021/12/10 03:36:32;;;;;;;99.73;44.50;;;;;;;6.09;100.00;98421.91;5030508;28;20205;-62
2021/12/10 03:39:00;;;;;;;103.73;45.43;;;;;;;6.07;100.00;98404.81;5031100;28;20193;-61
2021/12/10 03:41:27;;;;;;;110.20;44.77;;;;;;;6.16;100.00;98407.13;5031042;28;20193;-61
2021/12/10 03:43:55;;;;;;;98.00;43.00;;;;;;;6.15;100.00;98395.97;5031061;28;20197;-61
2021/12/10 03:46:24;;;;;;;112.13;45.50;;;;;;;6.21;100.00;98402.66;5030798;28;20232;-61
2021/12/10 03:48:53;;;;;;;104.77;43.23;;;;;;;6.25;100.00;98408.56;5029996;28;20296;-61
2021/12/10 03:51:24;;;;;;;101.40;43.97;;;;;;;6.29;100.00;98393.00;5030271;28;20280;-61
2021/12/10 03:53:51;;;;;;;101.73;44.13;;;;;;;6.32;100.00;98392.88;5037188;28;20586;-60
2021/12/10 03:56:21;;;;;;;113.37;44.70;;;;;;;6.31;100.00;98372.34;5034947;28;20284;-59
2021/12/10 03:58:50;;;;;;;108.23;45.00;;;;;;;6.27;100.00;98386.19;5029792;28;20669;-59
2021/12/10 04:01:22;;;;;;;100.57;44.30;;;;;;;6.24;100.00;98355.34;5035702;28;20225;-59
2021/12/10 04:03:53;;;;;;;103.47;43.73;;;;;;;6.07;100.00;98330.09;5045416;28;20259;-59
2021/12/10 04:06:21;;;;;;;123.10;47.10;;;;;;;6.23;100.00;98353.66;5038119;28;20707;-62
2021/12/10 04:08:48;;;;;;;96.93;41.83;;;;;;;6.31;100.00;98313.91;5041492;28;20716;-60
2021/12/10 04:11:16;;;;;;;98.07;44.47;;;;;;;6.22;100.00;98311.59;5050364;28;20228;-60
2021/12/10 04:13:45;;;;;;;99.67;43.43;;;;;;;6.09;100.00;98305.16;5049869;28;20722;-65
2021/12/10 04:16:12;;;;;;;113.67;45.67;;;;;;;6.15;100.00;98326.41;5050265;28;20225;-60
2021/12/10 04:18:40;;;;;;;101.73;44.37;;;;;;;6.07;100.00;98312.06;5049615;28;20307;-60
2021/12/10 04:21:12;;;;;;;109.07;46.10;;;;;;;6.04;100.00;98343.91;5049573;28;20313;-60
2021/12/10 04:23:41;;;;;;;102.60;45.03;;;;;;;5.69;100.00;98277.97;5036603;28;20408;-60
2021/12/10 04:26:09;;;;;;;106.17;45.07;;;;;;;5.98;100.00;98343.25;5034624;28;20657;-61
2021/12/10 04:28:36;;;;;;;122.67;46.40;;;;;;;6.03;100.00;98342.22;5039003;28;20317;-60
2021/12/10 04:31:03;;;;;;;111.00;45.90;;;;;;;6.04;100.00;98335.34;5040432;28;20319;-60
2021/12/10 04:33:30;;;;;;;103.60;45.47;;;;;;;6.13;100.00;98329.91;5043311;28;20282;-60
2021/12/10 04:36:00;;;;;;;104.90;44.53;;;;;;;6.12;100.00;98370.28;5037642;28;20316;-60
2021/12/10 04:38:32;;;;;;;98.07;44.63;;;;;;;6.15;100.00;98364.19;5029936;28;20318;-59
2021/12/10 04:41:02;;;;;;;107.63;45.37;;;;;;;6.08;100.00;98383.31;5035408;28;20220;-60
2021/12/10 04:43:36;;;;;;;115.53;45.67;;;;;;;6.13;100.00;98374.53;5028642;28;20723;-61
2021/12/10 04:46:03;;;;;;;111.73;48.80;;;;;;;5.90;100.00;98366.63;5031043;28;20308;-59
2021/12/10 04:48:31;;;;;;;103.27;45.87;;;;;;;6.05;100.00;98391.13;5028455;28;20228;-59
2021/12/10 04:50:58;;;;;;;120.30;47.17;;;;;;;6.10;100.00;98417.56;5032239;28;20310;-59
2021/12/10 04:53:25;;;;;;;109.07;47.73;;;;;;;6.01;100.00;98399.81;5031715;28;20221;-60
2021/12/10 04:55:54;;;;;;;93.57;42.90;;;;;;;5.97;100.00;98367.31;5032386;28;20248;-59
2021/12/10 04:58:21;;;;;;;101.20;45.13;;;;;;;5.95;100.00;98425.75;5036039;28;20228;-61
2021/12/10 05:00:50;;;;;;;106.10;46.17;;;;;;;5.96;100.00;98415.41;5032144;28;20220;-59
2021/12/10 05:03:19;;;;;;;100.57;45.40;;;;;;;6.03;100.00;98398.03;5032871;28;20224;-59
2021/12/10 05:05:47;;;;;;;94.17;44.13;;;;;;;6.15;100.00;98405.41;5020950;28;20685;-61
2021/12/10 05:08:14;;;;;;;86.37;41.00;;;;;;;6.17;100.00;98390.78;5020245;28;20237;-63
2021/12/10 05:10:42;;;;;;;86.07;40.90;;;;;;;6.24;100.00;98414.59;5032956;28;21132;-63
2021/12/10 05:13:10;;;;;;;94.30;43.17;;;;;;;6.26;100.00;98425.72;5033042;28;20242;-62
2021/12/10 05:15:39;;;;;;;86.47;41.33;;;;;;;6.23;100.00;98416.34;5033368;28;20227;-63
2021/12/10 05:18:08;;;;;;;88.60;40.97;;;;;;;6.25;100.00;98445.50;5033022;28;20254;-64
2021/12/10 05:20:38;;;;;;;91.50;43.27;;;;;;;6.29;100.00;98426.47;5033214;28;20307;-63
2021/12/10 05:23:05;;;;;;;91.10;41.30;;;;;;;6.35;100.00;98421.13;5033123;28;20221;-63
2021/12/10 05:25:32;;;;;;;87.30;39.53;;;;;;;6.31;100.00;98442.75;5033400;28;20307;-63
2021/12/10 05:28:00;;;;;;;89.17;42.03;;;;;;;6.34;100.00;98423.75;5036773;28;20700;-63
2021/12/10 05:30:31;;;;;;;81.33;38.30;;;;;;;6.37;100.00;98442.56;5053147;28;20260;-63
2021/12/10 05:33:01;;;;;;;94.40;41.70;;;;;;;6.32;100.00;98454.72;5052973;28;20714;-63
2021/12/10 05:35:28;;;;;;;90.17;42.70;;;;;;;6.35;100.00;98451.22;5053308;28;20262;-64
2021/12/10 05:37:55;;;;;;;92.10;40.80;;;;;;;6.31;100.00;98423.88;5052347;28;20220;-65
2021/12/10 05:40:23;;;;;;;92.13;40.83;;;;;;;6.37;100.00;98450.28;5053034;28;20221;-64
2021/12/10 05:42:50;;;;;;;88.83;39.73;;;;;;;6.40;100.00;98445.06;5053281;28;20716;-65
2021/12/10 05:45:20;;;;;;;103.93;42.27;;;;;;;6.48;100.00;98452.56;5053139;28;20271;-65
2021/12/10 05:47:48;;;;;;;91.07;38.20;;;;;;;6.49;100.00;98449.94;5051022;28;20256;-62
2021/12/10 05:50:20;;;;;;;99.40;42.27;;;;;;;6.52;100.00;98429.22;5031852;28;20744;-63
2021/12/10 05:52:47;;;;;;;103.67;39.80;;;;;;;6.51;100.00;98432.69;5022090;28;20323;-65
2021/12/10 05:55:15;;;;;;;98.50;38.17;;;;;;;6.50;100.00;98451.63;5032829;28;20229;-64
2021/12/10 05:57:42;;;;;;;98.00;39.37;;;;;;;6.59;100.00;98447.09;5033915;28;20225;-66
2021/12/10 06:00:13;;;;;;;91.30;38.93;;;;;;;6.61;100.00;98456.47;5052010;28;20262;-62
2021/12/10 06:02:41;;;;;;;93.80;39.23;;;;;;;6.63;100.00;98456.44;5053051;28;20302;-62
2021/12/10 06:05:10;;;;;;;84.40;37.90;;;;;;;6.59;100.00;98447.94;5052466;28;20220;-66
2021/12/10 06:07:38;;;;;;;92.23;39.00;;;;;;;6.48;100.00;98437.94;5052049;28;20320;-65
2021/12/10 06:10:06;;;;;;;96.20;43.13;;;;;;;6.64;100.00;98471.84;5052384;28;20228;-64
2021/12/10 06:12:33;;;;;;;78.77;37.60;;;;;;;6.70;100.00;98471.66;5052471;28;20324;-64
2021/12/10 06:15:00;;;;;;;79.83;37.53;;;;;;;6.69;100.00;98469.13;5052327;28;20603;-64
2021/12/10 06:17:27;;;;;;;83.57;36.50;;;;;;;6.86;100.00;98472.91;5047724;28;20246;-64
2021/12/10 06:19:54;;;;;;;85.97;38.03;;;;;;;6.78;100.00;98453.38;5031812;28;20232;-64
2021/12/10 06:22:22;;;;;;;77.20;37.27;;;;;;;6.86;100.00;98446.25;5031809;28;20311;-64
2021/12/10 06:24:49;;;;;;;77.03;38.67;;;;;;;6.98;100.00;98455.34;5032473;28;20228;-63
2021/12/10 06:27:16;;;;;;;84.63;41.33;;;;;;;7.00;100.00;98441.50;5032008;28;20267;-64
2021/12/10 06:29:43;;;;;;;95.33;42.47;;;;;;;7.00;100.00;98446.66;5049679;28;20619;-64
2021/12/10 06:32:20;;;;;;;81.60;40.37;;;;;;;6.92;100.00;98433.16;5052071;28;20278;-63
2021/12/10 06:34:47;;;;;;;91.63;40.23;;;;;;;7.11;100.00;98460.06;5051762;28;20307;-63
2021/12/10 06:37:14;;;;;;;90.43;40.17;;;;;;;7.11;100.00;98452.31;5051350;28;20220;-63
2021/12/10 06:39:42;;;;;;;83.33;39.33;;;;;;;7.03;100.00;98438.81;5051546;28;20307;-66
2021/12/10 06:42:09;;;;;;;85.30;39.13;;;;;;;7.06;100.00;98420.66;5051878;28;20220;-64
2021/12/10 06:44:36;;;;;;;81.90;36.10;;;;;;;7.18;100.00;98412.53;5051683;28;21424;-64
2021/12/10 06:47:05;;;;;;;82.43;38.10;;;;;;;7.19;100.00;98413.38;5051828;28;20658;-64
2021/12/10 06:49:32;;;;;;;91.27;40.97;;;;;;;7.27;100.00;98432.88;5051688;28;20703;-64
2021/12/10 06:52:00;;;;;;;87.80;42.53;;;;;;;7.32;100.00;98426.72;5051161;28;20610;-65
2021/12/10 06:54:27;;;;;;;99.97;43.47;;;;;;;7.38;100.00;98436.84;5051429;28;20360;-63
2021/12/10 06:56:57;;;;;;;89.60;39.67;;;;;;;7.34;100.00;98423.19;5051854;28;20316;-64
2021/12/10 06:59:26;;;;;;;106.90;44.70;;;;;;;7.22;100.00;98402.97;5036217;28;20221;-61
2021/12/10 07:01:54;;;;;;;84.10;40.90;;;;;;;7.46;100.00;98412.44;5031786;28;20213;-61
2021/12/10 07:04:21;;;;;;;82.97;38.63;;;;;;;7.55;100.00;98407.00;5031325;28;20220;-63
2021/12/10 07:06:49;;;;;;;96.93;40.87;;;;;;;7.50;100.00;98419.22;5031046;28;20423;-63
2021/12/10 07:09:19;;;;;;;85.53;39.03;;;;;;;7.66;100.00;98414.38;5031325;28;20283;-60
2021/12/10 07:11:48;;;;;;;80.77;38.10;;;;;;;7.71;100.00;98404.72;5030798;28;20304;-60
2021/12/10 07:14:17;;;;;;;83.43;40.67;;;;;;;7.76;100.00;98383.91;5031206;28;20723;-62
2021/12/10 07:16:45;;;;;;;253.37;53.97;;;;;;;7.98;100.00;98421.81;5031128;28;20225;-62
2021/12/10 07:19:13;;;;;;;142.53;43.97;;;;;;;8.10;100.00;98410.22;5031087;28;20260;-62
2021/12/10 07:21:40;;;;;;;163.20;46.67;;;;;;;8.23;100.00;98408.88;5030478;28;20225;-60
2021/12/10 07:24:11;;;;;;;135.37;43.47;;;;;;;8.29;100.00;98420.69;5031401;28;20247;-61
2021/12/10 07:26:39;;;;;;;110.10;41.37;;;;;;;8.44;100.00;98440.84;5030953;28;20646;-61
2021/12/10 07:29:07;;;;;;;106.30;40.53;;;;;;;8.32;100.00;98429.22;5043588;28;20233;-60
2021/12/10 07:31:39;;;;;;;109.03;45.60;;;;;;;8.51;100.00;98467.31;5050688;28;20782;-60
2021/12/10 07:34:06;;;;;;;101.57;46.03;;;;;;;8.40;100.00;98462.53;5050861;28;20231;-60
2021/12/10 07:36:33;;;;;;;101.33;43.43;;;;;;;8.59;100.00;98506.66;5050238;28;20710;-60
2021/12/10 07:39:01;;;;;;;115.70;55.90;;;;;;;8.61;100.00;98505.72;5050942;28;20300;-60
2021/12/10 07:41:28;;;;;;;104.80;49.83;;;;;;;8.70;100.00;98499.34;5050798;28;20302;-60
2021/12/10 07:43:55;;;;;;;86.73;42.87;;;;;;;8.74;100.00;98472.47;5051007;28;20680;-62
2021/12/10 07:46:27;;;;;;;85.30;41.40;;;;;;;8.83;100.00;98481.63;5050267;28;20303;-62
2021/12/10 07:48:56;;;;;;;76.37;37.27;;;;;;;8.77;100.00;98489.63;5050655;28;20237;-63
2021/12/10 07:51:26;;;;;;;73.03;35.60;;;;;;;9.02;100.00;98490.38;5049909;28;20307;-68
2021/12/10 07:53:57;;;;;;;65.30;34.43;;;;;;;9.17;100.00;98492.34;5050766;28;20315;-65
2021/12/10 07:56:26;;;;;;;121.53;38.70;;;;;;;9.32;100.00;98501.25;5050089;28;20236;-67
2021/12/10 07:58:54;;;;;;;80.03;34.53;;;;;;;9.40;100.00;98481.91;5039374;28;20659;-63
2021/12/10 08:01:26;;;;;;;71.83;34.60;;;;;;;9.69;100.00;98477.31;5030422;28;20304;-63
2021/12/10 08:03:56;;;;;;;119.93;36.77;;;;;;;9.78;100.00;98489.88;5030655;28;20224;-64
2021/12/10 08:06:24;;;;;;;106.17;37.13;;;;;;;9.84;100.00;98468.88;5029818;28;20225;-64
2021/12/10 08:08:51;;;;;;;128.53;40.40;;;;;;;10.07;100.00;98502.44;5030538;28;20270;-62
2021/12/10 08:11:20;;;;;;;84.00;34.93;;;;;;;10.19;100.00;98507.13;5029660;28;20626;-63
2021/12/10 08:13:47;;;;;;;65.47;32.60;;;;;;;10.23;100.00;98512.19;5030247;28;20324;-63
2021/12/10 08:16:15;;;;;;;75.77;34.13;;;;;;;10.26;100.00;98507.72;5030231;28;20236;-59
2021/12/10 08:18:45;;;;;;;52.73;30.83;;;;;;;10.39;100.00;98492.44;5030088;28;20221;-61
2021/12/10 08:21:13;;;;;;;67.93;31.80;;;;;;;10.42;100.00;98494.91;5029527;28;20221;-62
2021/12/10 08:23:41;;;;;;;84.07;36.23;;;;;;;10.59;100.00;98492.41;5029854;28;20233;-62
2021/12/10 08:26:09;;;;;;;77.40;31.27;;;;;;;10.65;100.00;98489.53;5030574;28;20207;-64
2021/12/10 08:28:36;;;;;;;63.87;31.43;;;;;;;10.68;100.00;98481.59;5030172;28;20201;-64
2021/12/10 08:31:04;;;;;;;80.93;29.87;;;;;;;10.75;100.00;98477.81;5030283;28;20227;-62
2021/12/10 08:33:31;;;;;;;76.80;31.00;;;;;;;10.63;100.00;98480.13;5030571;28;20284;-62
2021/12/10 08:36:02;;;;;;;72.00;31.03;;;;;;;10.87;100.00;98479.00;5030418;28;20201;-62
2021/12/10 08:38:31;;;;;;;62.77;27.43;;;;;;;10.93;100.00;98490.88;5030457;28;20205;-62
2021/12/10 08:41:02;;;;;;;118.97;39.37;;;;;;;11.08;100.00;98487.53;5030363;28;20189;-62
2021/12/10 08:43:30;;;;;;;88.00;37.03;;;;;;;10.96;100.00;98462.13;5024695;28;20776;-63
2021/12/10 08:45:58;;;;;;;138.20;35.03;;;;;;;11.18;100.00;98478.38;5010649;28;20226;-61
2021/12/10 08:48:29;;;;;;;69.13;27.57;;;;;;;11.23;100.00;98469.47;5032690;28;20715;-63
2021/12/10 08:50:58;;;;;;;46.30;24.60;;;;;;;11.12;100.00;98481.28;5032646;28;20308;-63
2021/12/10 08:53:25;;;;;;;38.67;23.47;;;;;;;11.04;100.00;98473.88;5029922;28;20223;-64
2021/12/10 08:55:56;;;;;;;41.70;24.57;;;;;;;11.06;100.00;98468.59;5030081;28;20197;-62
2021/12/10 08:58:23;;;;;;;35.10;22.53;;;;;;;11.09;100.00;98471.03;5030155;28;20198;-62
2021/12/10 09:00:53;;;;;;;58.33;27.73;;;;;;;11.36;100.00;98487.91;5030050;28;20233;-62
2021/12/10 09:03:20;;;;;;;110.60;32.37;;;;;;;11.28;100.00;98466.66;5029984;28;20741;-63
2021/12/10 09:05:47;;;;;;;70.57;29.33;;;;;;;11.37;100.00;98476.59;5030092;28;20236;-64
2021/12/10 09:08:15;;;;;;;100.80;32.03;;;;;;;11.46;100.00;98457.97;5030370;28;20677;-65
2021/12/10 09:10:47;;;;;;;55.97;30.80;;;;;;;11.47;100.00;98443.22;5029890;28;20229;-64
2021/12/10 09:13:20;;;;;;;57.53;31.37;;;;;;;11.47;100.00;98420.69;5029914;28;20268;-64
2021/12/10 09:15:54;;;;;;;70.90;34.90;;;;;;;11.78;100.00;98432.16;5030040;28;20263;-64
2021/12/10 09:18:25;;;;;;;79.20;31.53;;;;;;;11.89;100.00;98438.47;5027827;28;20646;-62
2021/12/10 09:20:55;;;;;;;62.80;31.27;;;;;;;12.11;100.00;98440.81;5010009;28;20228;-62
2021/12/10 09:23:25;;;;;;;58.20;26.53;;;;;;;12.26;100.00;98434.81;5010073;28;20401;-63
2021/12/10 09:25:55;;;;;;;54.00;25.33;;;;;;;12.52;100.00;98435.19;5013442;28;20304;-63
2021/12/10 09:28:24;;;;;;;49.70;23.30;;;;;;;12.64;100.00;98443.16;5030151;28;20212;-61
2021/12/10 09:30:54;;;;;;;37.83;22.27;;;;;;;12.66;100.00;98435.28;5029797;28;20221;-64
2021/12/10 09:33:22;;;;;;;36.83;20.23;;;;;;;12.73;100.00;98449.66;5029977;28;20742;-64
2021/12/10 09:35:49;;;;;;;34.80;20.70;;;;;;;12.68;100.00;98439.47;5032728;28;20687;-61
2021/12/10 09:38:19;;;;;;;27.33;18.27;;;;;;;12.82;100.00;98461.31;5033747;28;20280;-62
2021/12/10 09:40:52;;;;;;;48.10;21.63;;;;;;;12.84;100.00;98462.94;5033396;28;20193;-61
2021/12/10 09:43:20;;;;;;;28.53;18.93;;;;;;;12.72;100.00;98416.72;5033361;28;20243;-61
2021/12/10 09:45:52;;;;;;;50.30;20.47;;;;;;;12.88;100.00;98448.78;5033563;28;20199;-60
2021/12/10 09:48:20;;;;;;;72.67;22.40;;;;;;;12.92;100.00;98437.28;5033388;28;20203;-63
2021/12/10 09:50:54;;;;;;;28.23;19.00;;;;;;;12.91;100.00;98416.53;5029067;28;20675;-63
2021/12/10 09:53:21;;;;;;;36.90;19.07;;;;;;;12.80;100.00;98434.53;5013135;28;20701;-60
2021/12/10 09:55:49;;;;;;;34.57;18.13;;;;;;;12.86;100.00;98444.63;5032439;28;20205;-60
2021/12/10 09:58:18;;;;;;;39.03;20.33;;;;;;;12.76;100.00;98423.44;5033321;28;20280;-59
2021/12/10 10:00:51;;;;;;;47.37;23.30;;;;;;;12.82;100.00;98420.50;5032869;28;20647;-59
2021/12/10 10:03:21;;;;;;;47.43;23.30;;;;;;;12.89;100.00;98405.38;5032960;28;20288;-59
2021/12/10 10:05:49;;;;;;;38.57;22.83;;;;;;;12.69;100.00;98424.69;5032874;28;20246;-61
2021/12/10 10:08:20;;;;;;;48.00;26.17;;;;;;;12.71;100.00;98431.50;5032841;28;20201;-61
2021/12/10 10:10:50;;;;;;;54.37;25.13;;;;;;;12.68;100.00;98434.28;5032760;28;20317;-61
2021/12/10 10:13:19;;;;;;;34.17;22.87;;;;;;;12.44;100.00;98439.97;5032671;28;20265;-61
2021/12/10 10:15:48;;;;;;;39.87;24.03;;;;;;;12.24;100.00;98426.25;5032801;28;20252;-62
2021/12/10 10:18:18;;;;;;;40.40;25.83;;;;;;;12.06;100.00;98419.44;5032663;28;20207;-61
2021/12/10 10:20:54;;;;;;;41.37;24.80;;;;;;;11.88;100.00;98415.16;5032694;28;20657;-62
2021/12/10 10:23:22;;;;;;;46.17;26.40;;;;;;;11.84;100.00;98424.91;5032789;28;20648;-62
2021/12/10 10:25:52;;;;;;;42.37;25.23;;;;;;;11.93;100.00;98427.03;5032557;28;20292;-62
2021/12/10 10:28:20;;;;;;;42.90;26.80;;;;;;;11.86;100.00;98419.59;5032507;28;20194;-63
2021/12/10 10:30:54;;;;;;;40.23;24.60;;;;;;;11.82;100.00;98408.53;5032419;28;20224;-62
2021/12/10 10:33:22;;;;;;;35.97;24.63;;;;;;;11.96;100.00;98419.03;5032680;28;20198;-62
2021/12/10 10:35:53;;;;;;;39.87;24.97;;;;;;;12.02;100.00;98406.66;5032654;28;20658;-62
2021/12/10 10:38:21;;;;;;;42.70;25.23;;;;;;;12.05;100.00;98375.28;5032529;28;20252;-62
2021/12/10 10:40:52;;;;;;;41.80;23.93;;;;;;;12.12;100.00;98384.44;5032506;28;20228;-61
2021/12/10 10:43:19;;;;;;;35.77;24.63;;;;;;;12.21;100.00;98363.97;5032085;28;20208;-62
2021/12/10 10:45:47;;;;;;;37.67;24.90;;;;;;;12.22;100.00;98363.06;5031171;28;20202;-62
2021/12/10 10:48:15;;;;;;;40.97;24.90;;;;;;;12.06;100.00;98344.00;5032045;28;20693;-63
2021/12/10 10:50:51;;;;;;;39.07;25.23;;;;;;;12.21;100.00;98353.56;5012364;28;20226;-65
2021/12/10 10:53:22;;;;;;;42.27;23.77;;;;;;;12.44;100.00;98354.91;5012303;28;20973;-63
2021/12/10 10:55:54;;;;;;;37.53;24.43;;;;;;;12.49;100.00;98346.88;5012496;28;20626;-63
2021/12/10 10:58:25;;;;;;;42.63;26.03;;;;;;;12.49;100.00;98339.06;5012217;28;20208;-63
2021/12/10 11:01:00;;;;;;;47.30;29.53;;;;;;;12.28;100.00;98315.91;5012245;28;20190;-63
2021/12/10 11:03:36;;;;;;;49.33;31.57;;;;;;;12.29;100.00;98304.59;5012022;28;20197;-63
2021/12/10 11:06:07;;;;;;;63.97;40.47;;;;;;;11.97;100.00;98267.31;5012100;28;20237;-63
2021/12/10 11:08:37;;;;;;;66.10;39.27;;;;;;;12.65;100.00;98342.47;5011904;28;20586;-63
2021/12/10 11:11:15;;;;;;;74.60;41.10;;;;;;;12.59;100.00;98330.66;5011850;28;20230;-63
2021/12/10 11:13:43;;;;;;;62.27;36.73;;;;;;;12.56;100.00;98314.38;5011781;28;20716;-63
2021/12/10 11:16:13;;;;;;;60.57;36.80;;;;;;;12.62;100.00;98317.47;5011882;28;20293;-65
2021/12/10 11:18:46;;;;;;;60.07;35.63;;;;;;;12.72;100.00;98305.63;5011768;28;20289;-62
2021/12/10 11:21:15;;;;;;;52.90;33.23;;;;;;;12.71;100.00;98334.34;5011990;28;20224;-62
2021/12/10 11:23:43;;;;;;;53.07;31.20;;;;;;;12.68;100.00;98311.91;5011874;28;20233;-59
2021/12/10 11:26:11;;;;;;;46.73;29.70;;;;;;;12.77;100.00;98320.97;5011629;28;20202;-62